sensor_id;sensor_type;location;lat;lon;timestamp;temperature;humidity
15983;DHT22;14442;50.196;8.096;2022-12-10T00:01:55;22.20;42.50
15983;DHT22;14442;50.196;8.096;2022-12-10T00:04:22;22.20;42.70
15983;DHT22;14442;50.196;8.096;2022-12-10T00:06:50;22.20;42.60
15983;DHT22;14442;50.196;8.096;2022-12-10T00:09:18;22.10;42.50
15983;DHT22;14442;50.196;8.096;2022-12-10T00:11:46;22.20;42.60
15983;DHT22;14442;50.196;8.096;2022-12-10T00:14:13;22.20;42.70
15983;DHT22;14442;50.196;8.096;2022-12-10T00:16:40;22.20;42.60
15983;DHT22;14442;50.196;8.096;2022-12-10T00:19:07;22.10;42.50
15983;DHT22;14442;50.196;8.096;2022-12-10T00:21:34;22.10;42.50
15983;DHT22;14442;50.196;8.096;2022-12-10T00:24:03;22.10;42.40
15983;DHT22;14442;50.196;8.096;2022-12-10T00:26:32;22.10;42.40
15983;DHT22;14442;50.196;8.096;2022-12-10T00:29:00;22.00;42.30
15983;DHT22;14442;50.196;8.096;2022-12-10T00:31:29;22.00;42.40
15983;DHT22;14442;50.196;8.096;2022-12-10T00:33:57;22.00;42.30
15983;DHT22;14442;50.196;8.096;2022-12-10T00:36:27;22.00;42.50
15983;DHT22;14442;50.196;8.096;2022-12-10T00:38:55;22.00;42.40
15983;DHT22;14442;50.196;8.096;2022-12-10T00:41:23;22.00;42.50
15983;DHT22;14442;50.196;8.096;2022-12-10T00:43:50;22.00;42.40
15983;DHT22;14442;50.196;8.096;2022-12-10T00:46:18;22.00;42.40
15983;DHT22;14442;50.196;8.096;2022-12-10T00:48:46;21.90;42.60
15983;DHT22;14442;50.196;8.096;2022-12-10T00:51:15;22.00;42.80
15983;DHT22;14442;50.196;8.096;2022-12-10T00:53:43;21.90;42.70
15983;DHT22;14442;50.196;8.096;2022-12-10T00:56:11;21.90;42.40
15983;DHT22;14442;50.196;8.096;2022-12-10T00:58:40;21.90;42.30
15983;DHT22;14442;50.196;8.096;2022-12-10T01:01:09;21.90;42.40
15983;DHT22;14442;50.196;8.096;2022-12-10T01:03:36;21.90;42.30
15983;DHT22;14442;50.196;8.096;2022-12-10T01:06:11;21.90;42.30
15983;DHT22;14442;50.196;8.096;2022-12-10T01:08:38;21.90;42.40
15983;DHT22;14442;50.196;8.096;2022-12-10T01:11:05;21.90;42.60
15983;DHT22;14442;50.196;8.096;2022-12-10T01:13:32;21.90;42.60
15983;DHT22;14442;50.196;8.096;2022-12-10T01:16:01;21.90;42.50
15983;DHT22;14442;50.196;8.096;2022-12-10T01:18:28;21.90;42.40
15983;DHT22;14442;50.196;8.096;2022-12-10T01:20:55;21.90;42.60
15983;DHT22;14442;50.196;8.096;2022-12-10T01:23:21;21.90;42.50
15983;DHT22;14442;50.196;8.096;2022-12-10T01:25:48;21.80;42.30
15983;DHT22;14442;50.196;8.096;2022-12-10T01:28:15;21.80;42.40
15983;DHT22;14442;50.196;8.096;2022-12-10T01:30:41;21.80;42.40
15983;DHT22;14442;50.196;8.096;2022-12-10T01:33:09;21.70;42.20
15983;DHT22;14442;50.196;8.096;2022-12-10T01:35:36;21.70;42.20
15983;DHT22;14442;50.196;8.096;2022-12-10T01:38:03;21.70;42.20
15983;DHT22;14442;50.196;8.096;2022-12-10T01:40:29;21.60;41.90
15983;DHT22;14442;50.196;8.096;2022-12-10T01:42:56;21.70;41.80
15983;DHT22;14442;50.196;8.096;2022-12-10T01:45:27;21.70;41.70
15983;DHT22;14442;50.196;8.096;2022-12-10T01:47:54;21.70;41.60
15983;DHT22;14442;50.196;8.096;2022-12-10T01:50:22;21.70;41.60
15983;DHT22;14442;50.196;8.096;2022-12-10T01:52:49;21.70;41.50
15983;DHT22;14442;50.196;8.096;2022-12-10T01:55:39;21.70;41.50
15983;DHT22;14442;50.196;8.096;2022-12-10T01:58:06;21.70;41.40
15983;DHT22;14442;50.196;8.096;2022-12-10T02:00:34;21.70;41.50
15983;DHT22;14442;50.196;8.096;2022-12-10T02:03:08;21.70;41.30
15983;DHT22;14442;50.196;8.096;2022-12-10T02:05:42;21.70;41.30
15983;DHT22;14442;50.196;8.096;2022-12-10T02:08:17;21.70;41.30
15983;DHT22;14442;50.196;8.096;2022-12-10T02:10:53;21.70;41.20
15983;DHT22;14442;50.196;8.096;2022-12-10T02:13:24;21.70;41.30
15983;DHT22;14442;50.196;8.096;2022-12-10T02:15:56;21.70;41.10
15983;DHT22;14442;50.196;8.096;2022-12-10T02:18:26;21.70;41.10
15983;DHT22;14442;50.196;8.096;2022-12-10T02:20:57;21.70;41.00
15983;DHT22;14442;50.196;8.096;2022-12-10T02:23:27;21.70;41.00
15983;DHT22;14442;50.196;8.096;2022-12-10T02:26:02;21.70;41.00
15983;DHT22;14442;50.196;8.096;2022-12-10T02:28:36;21.80;40.90
15983;DHT22;14442;50.196;8.096;2022-12-10T02:31:07;21.70;40.80
15983;DHT22;14442;50.196;8.096;2022-12-10T02:33:37;21.80;40.70
15983;DHT22;14442;50.196;8.096;2022-12-10T02:36:06;21.80;40.70
15983;DHT22;14442;50.196;8.096;2022-12-10T02:38:36;21.80;40.60
15983;DHT22;14442;50.196;8.096;2022-12-10T02:41:07;21.90;40.70
15983;DHT22;14442;50.196;8.096;2022-12-10T02:43:34;21.90;40.60
15983;DHT22;14442;50.196;8.096;2022-12-10T02:46:03;21.90;40.50
15983;DHT22;14442;50.196;8.096;2022-12-10T02:48:33;21.90;40.40
15983;DHT22;14442;50.196;8.096;2022-12-10T02:51:01;21.90;40.30
15983;DHT22;14442;50.196;8.096;2022-12-10T02:53:28;21.90;40.30
15983;DHT22;14442;50.196;8.096;2022-12-10T02:56:06;22.00;40.40
15983;DHT22;14442;50.196;8.096;2022-12-10T02:58:42;22.00;40.40
15983;DHT22;14442;50.196;8.096;2022-12-10T03:01:18;22.00;40.30
15983;DHT22;14442;50.196;8.096;2022-12-10T03:03:52;22.00;40.30
15983;DHT22;14442;50.196;8.096;2022-12-10T03:06:27;22.00;40.20
15983;DHT22;14442;50.196;8.096;2022-12-10T03:09:00;22.00;40.20
15983;DHT22;14442;50.196;8.096;2022-12-10T03:11:28;22.00;40.10
15983;DHT22;14442;50.196;8.096;2022-12-10T03:13:58;22.00;40.20
15983;DHT22;14442;50.196;8.096;2022-12-10T03:16:29;22.00;40.10
15983;DHT22;14442;50.196;8.096;2022-12-10T03:19:02;22.00;40.10
15983;DHT22;14442;50.196;8.096;2022-12-10T03:21:32;22.10;40.10
15983;DHT22;14442;50.196;8.096;2022-12-10T03:24:00;22.10;40.10
15983;DHT22;14442;50.196;8.096;2022-12-10T03:26:28;22.10;40.00
15983;DHT22;14442;50.196;8.096;2022-12-10T03:28:58;22.10;40.00
15983;DHT22;14442;50.196;8.096;2022-12-10T03:31:27;22.10;40.00
15983;DHT22;14442;50.196;8.096;2022-12-10T03:33:55;22.10;39.90
15983;DHT22;14442;50.196;8.096;2022-12-10T03:36:24;22.10;40.00
15983;DHT22;14442;50.196;8.096;2022-12-10T03:38:51;22.10;40.10
15983;DHT22;14442;50.196;8.096;2022-12-10T03:41:18;22.10;40.00
15983;DHT22;14442;50.196;8.096;2022-12-10T03:43:52;22.10;39.90
15983;DHT22;14442;50.196;8.096;2022-12-10T03:46:19;22.10;39.90
15983;DHT22;14442;50.196;8.096;2022-12-10T03:48:46;22.10;39.90
15983;DHT22;14442;50.196;8.096;2022-12-10T03:51:13;22.10;39.90
15983;DHT22;14442;50.196;8.096;2022-12-10T03:53:41;22.10;39.90
15983;DHT22;14442;50.196;8.096;2022-12-10T03:56:08;22.10;39.80
15983;DHT22;14442;50.196;8.096;2022-12-10T03:58:35;22.10;39.80
15983;DHT22;14442;50.196;8.096;2022-12-10T04:01:03;22.10;39.90
15983;DHT22;14442;50.196;8.096;2022-12-10T04:03:29;22.20;40.00
15983;DHT22;14442;50.196;8.096;2022-12-10T04:06:01;22.10;39.90
15983;DHT22;14442;50.196;8.096;2022-12-10T04:08:27;22.10;39.80
15983;DHT22;14442;50.196;8.096;2022-12-10T04:11:02;22.10;39.90
15983;DHT22;14442;50.196;8.096;2022-12-10T04:13:31;22.10;39.80
15983;DHT22;14442;50.196;8.096;2022-12-10T04:16:16;22.00;39.80
15983;DHT22;14442;50.196;8.096;2022-12-10T04:18:56;22.10;39.80
15983;DHT22;14442;50.196;8.096;2022-12-10T04:21:23;22.10;39.80
15983;DHT22;14442;50.196;8.096;2022-12-10T04:24:08;22.10;40.60
15983;DHT22;14442;50.196;8.096;2022-12-10T04:26:54;22.10;39.90
15983;DHT22;14442;50.196;8.096;2022-12-10T04:29:23;22.10;39.90
15983;DHT22;14442;50.196;8.096;2022-12-10T04:31:50;22.00;39.80
15983;DHT22;14442;50.196;8.096;2022-12-10T04:34:17;22.00;39.80
15983;DHT22;14442;50.196;8.096;2022-12-10T04:36:43;22.10;40.00
15983;DHT22;14442;50.196;8.096;2022-12-10T04:39:10;22.00;39.90
15983;DHT22;14442;50.196;8.096;2022-12-10T04:41:37;22.00;39.90
15983;DHT22;14442;50.196;8.096;2022-12-10T04:44:07;22.10;40.10
15983;DHT22;14442;50.196;8.096;2022-12-10T04:46:33;22.00;39.90
15983;DHT22;14442;50.196;8.096;2022-12-10T04:49:01;22.00;39.90
15983;DHT22;14442;50.196;8.096;2022-12-10T04:51:28;22.00;40.60
15983;DHT22;14442;50.196;8.096;2022-12-10T04:53:54;22.00;40.00
15983;DHT22;14442;50.196;8.096;2022-12-10T04:56:21;22.00;39.90
15983;DHT22;14442;50.196;8.096;2022-12-10T04:58:48;22.00;39.90
15983;DHT22;14442;50.196;8.096;2022-12-10T05:01:16;22.00;40.00
15983;DHT22;14442;50.196;8.096;2022-12-10T05:03:44;22.00;40.00
15983;DHT22;14442;50.196;8.096;2022-12-10T05:06:13;22.00;39.90
15983;DHT22;14442;50.196;8.096;2022-12-10T05:08:40;22.00;39.90
15983;DHT22;14442;50.196;8.096;2022-12-10T05:11:09;22.00;39.90
15983;DHT22;14442;50.196;8.096;2022-12-10T05:13:37;21.90;39.90
15983;DHT22;14442;50.196;8.096;2022-12-10T05:16:05;21.90;39.90
15983;DHT22;14442;50.196;8.096;2022-12-10T05:18:33;21.90;39.90
15983;DHT22;14442;50.196;8.096;2022-12-10T05:21:02;21.90;39.90
15983;DHT22;14442;50.196;8.096;2022-12-10T05:23:29;21.90;39.80
15983;DHT22;14442;50.196;8.096;2022-12-10T05:25:59;21.90;39.90
15983;DHT22;14442;50.196;8.096;2022-12-10T05:28:26;21.90;39.90
15983;DHT22;14442;50.196;8.096;2022-12-10T05:30:53;21.90;39.90
15983;DHT22;14442;50.196;8.096;2022-12-10T05:33:20;21.90;40.00
15983;DHT22;14442;50.196;8.096;2022-12-10T05:35:53;21.90;40.00
15983;DHT22;14442;50.196;8.096;2022-12-10T05:38:20;21.90;40.10
15983;DHT22;14442;50.196;8.096;2022-12-10T05:40:47;21.80;39.90
15983;DHT22;14442;50.196;8.096;2022-12-10T05:43:14;21.80;39.90
15983;DHT22;14442;50.196;8.096;2022-12-10T05:45:40;21.80;39.90
15983;DHT22;14442;50.196;8.096;2022-12-10T05:48:08;21.80;40.00
15983;DHT22;14442;50.196;8.096;2022-12-10T05:50:35;21.80;39.90
15983;DHT22;14442;50.196;8.096;2022-12-10T05:53:04;21.80;39.90
15983;DHT22;14442;50.196;8.096;2022-12-10T05:55:30;21.80;40.00
15983;DHT22;14442;50.196;8.096;2022-12-10T05:57:58;21.70;39.90
15983;DHT22;14442;50.196;8.096;2022-12-10T06:00:25;21.70;40.00
15983;DHT22;14442;50.196;8.096;2022-12-10T06:02:52;21.70;40.00
15983;DHT22;14442;50.196;8.096;2022-12-10T06:05:18;21.70;40.00
15983;DHT22;14442;50.196;8.096;2022-12-10T06:07:45;21.70;40.00
15983;DHT22;14442;50.196;8.096;2022-12-10T06:10:13;21.70;40.10
15983;DHT22;14442;50.196;8.096;2022-12-10T06:12:40;21.70;40.00
15983;DHT22;14442;50.196;8.096;2022-12-10T06:15:07;21.70;40.00
15983;DHT22;14442;50.196;8.096;2022-12-10T06:17:34;21.70;40.10
15983;DHT22;14442;50.196;8.096;2022-12-10T06:20:01;21.70;40.00
15983;DHT22;14442;50.196;8.096;2022-12-10T06:22:28;21.60;39.90
15983;DHT22;14442;50.196;8.096;2022-12-10T06:24:55;21.60;39.90
15983;DHT22;14442;50.196;8.096;2022-12-10T06:27:22;21.60;39.90
15983;DHT22;14442;50.196;8.096;2022-12-10T06:29:49;21.70;40.00
15983;DHT22;14442;50.196;8.096;2022-12-10T06:32:16;21.60;39.90
15983;DHT22;14442;50.196;8.096;2022-12-10T06:34:42;21.60;39.90
15983;DHT22;14442;50.196;8.096;2022-12-10T06:37:09;21.60;39.90
15983;DHT22;14442;50.196;8.096;2022-12-10T06:39:36;21.60;39.90
15983;DHT22;14442;50.196;8.096;2022-12-10T06:42:03;21.60;40.00
15983;DHT22;14442;50.196;8.096;2022-12-10T06:44:32;21.60;40.00
15983;DHT22;14442;50.196;8.096;2022-12-10T06:46:59;21.50;39.90
15983;DHT22;14442;50.196;8.096;2022-12-10T06:49:25;21.50;39.90
15983;DHT22;14442;50.196;8.096;2022-12-10T06:51:52;21.50;40.00
15983;DHT22;14442;50.196;8.096;2022-12-10T06:54:18;21.50;40.00
15983;DHT22;14442;50.196;8.096;2022-12-10T06:56:45;21.50;40.00
15983;DHT22;14442;50.196;8.096;2022-12-10T06:59:12;21.50;40.00
15983;DHT22;14442;50.196;8.096;2022-12-10T07:01:40;21.50;39.90
15983;DHT22;14442;50.196;8.096;2022-12-10T07:04:08;21.50;40.00
15983;DHT22;14442;50.196;8.096;2022-12-10T07:06:35;21.50;40.00
15983;DHT22;14442;50.196;8.096;2022-12-10T07:09:01;21.40;39.90
15983;DHT22;14442;50.196;8.096;2022-12-10T07:11:28;21.40;40.10
15983;DHT22;14442;50.196;8.096;2022-12-10T07:13:56;21.40;40.00
15983;DHT22;14442;50.196;8.096;2022-12-10T07:16:24;21.40;40.20
15983;DHT22;14442;50.196;8.096;2022-12-10T07:18:54;21.30;40.10
15983;DHT22;14442;50.196;8.096;2022-12-10T07:21:22;21.30;40.20
15983;DHT22;14442;50.196;8.096;2022-12-10T07:23:50;21.30;40.20
15983;DHT22;14442;50.196;8.096;2022-12-10T07:26:18;21.40;40.30
15983;DHT22;14442;50.196;8.096;2022-12-10T07:28:45;21.40;40.00
15983;DHT22;14442;50.196;8.096;2022-12-10T07:31:12;21.50;39.90
15983;DHT22;14442;50.196;8.096;2022-12-10T07:33:39;21.60;39.50
15983;DHT22;14442;50.196;8.096;2022-12-10T07:36:08;21.80;39.40
15983;DHT22;14442;50.196;8.096;2022-12-10T07:38:36;21.90;39.20
15983;DHT22;14442;50.196;8.096;2022-12-10T07:41:03;22.10;39.10
15983;DHT22;14442;50.196;8.096;2022-12-10T07:43:32;22.30;39.00
15983;DHT22;14442;50.196;8.096;2022-12-10T07:46:03;22.30;38.80
15983;DHT22;14442;50.196;8.096;2022-12-10T07:48:30;22.30;39.00
15983;DHT22;14442;50.196;8.096;2022-12-10T07:50:57;22.30;39.10
15983;DHT22;14442;50.196;8.096;2022-12-10T07:53:25;22.20;39.10
15983;DHT22;14442;50.196;8.096;2022-12-10T07:55:52;22.20;39.20
15983;DHT22;14442;50.196;8.096;2022-12-10T07:58:18;22.20;39.30
15983;DHT22;14442;50.196;8.096;2022-12-10T08:00:45;22.20;39.60
15983;DHT22;14442;50.196;8.096;2022-12-10T08:03:12;22.20;39.70
15983;DHT22;14442;50.196;8.096;2022-12-10T08:05:38;22.20;39.80
15983;DHT22;14442;50.196;8.096;2022-12-10T08:08:05;22.30;40.00
15983;DHT22;14442;50.196;8.096;2022-12-10T08:10:34;22.30;40.00
15983;DHT22;14442;50.196;8.096;2022-12-10T08:13:02;22.30;40.20
15983;DHT22;14442;50.196;8.096;2022-12-10T08:15:29;22.30;40.10
15983;DHT22;14442;50.196;8.096;2022-12-10T08:17:55;22.30;40.20
15983;DHT22;14442;50.196;8.096;2022-12-10T08:20:22;22.40;40.30
15983;DHT22;14442;50.196;8.096;2022-12-10T08:22:49;22.30;40.40
15983;DHT22;14442;50.196;8.096;2022-12-10T08:25:16;22.30;40.60
15983;DHT22;14442;50.196;8.096;2022-12-10T08:27:44;22.30;40.30
15983;DHT22;14442;50.196;8.096;2022-12-10T08:30:11;22.30;40.20
15983;DHT22;14442;50.196;8.096;2022-12-10T08:32:38;22.40;40.20
15983;DHT22;14442;50.196;8.096;2022-12-10T08:35:06;22.30;40.20
15983;DHT22;14442;50.196;8.096;2022-12-10T08:37:32;22.30;40.00
15983;DHT22;14442;50.196;8.096;2022-12-10T08:39:59;22.30;40.00
15983;DHT22;14442;50.196;8.096;2022-12-10T08:42:25;22.30;40.10
15983;DHT22;14442;50.196;8.096;2022-12-10T08:44:54;22.20;40.10
15983;DHT22;14442;50.196;8.096;2022-12-10T08:47:21;22.30;40.10
15983;DHT22;14442;50.196;8.096;2022-12-10T08:49:47;22.30;40.20
15983;DHT22;14442;50.196;8.096;2022-12-10T08:52:14;22.30;40.10
15983;DHT22;14442;50.196;8.096;2022-12-10T08:54:41;22.20;39.90
15983;DHT22;14442;50.196;8.096;2022-12-10T08:57:07;22.30;40.00
15983;DHT22;14442;50.196;8.096;2022-12-10T08:59:34;22.30;40.00
15983;DHT22;14442;50.196;8.096;2022-12-10T09:02:02;22.30;39.90
15983;DHT22;14442;50.196;8.096;2022-12-10T09:04:28;22.30;39.90
15983;DHT22;14442;50.196;8.096;2022-12-10T09:06:55;22.30;39.80
15983;DHT22;14442;50.196;8.096;2022-12-10T09:09:22;22.30;39.90
15983;DHT22;14442;50.196;8.096;2022-12-10T09:11:48;22.30;39.80
15983;DHT22;14442;50.196;8.096;2022-12-10T09:14:15;22.30;39.80
15983;DHT22;14442;50.196;8.096;2022-12-10T09:16:42;22.30;39.70
15983;DHT22;14442;50.196;8.096;2022-12-10T09:19:10;22.30;39.70
15983;DHT22;14442;50.196;8.096;2022-12-10T09:21:36;22.30;39.60
15983;DHT22;14442;50.196;8.096;2022-12-10T09:24:04;22.30;39.60
15983;DHT22;14442;50.196;8.096;2022-12-10T09:26:30;22.30;39.50
15983;DHT22;14442;50.196;8.096;2022-12-10T09:28:57;22.40;39.50
15983;DHT22;14442;50.196;8.096;2022-12-10T09:31:25;22.40;39.50
15983;DHT22;14442;50.196;8.096;2022-12-10T09:33:52;22.50;39.50
15983;DHT22;14442;50.196;8.096;2022-12-10T09:36:21;22.50;39.30
15983;DHT22;14442;50.196;8.096;2022-12-10T09:38:49;22.50;39.20
15983;DHT22;14442;50.196;8.096;2022-12-10T09:41:47;22.60;39.30
15983;DHT22;14442;50.196;8.096;2022-12-10T09:44:29;22.60;39.20
15983;DHT22;14442;50.196;8.096;2022-12-10T09:46:59;22.60;39.10
15983;DHT22;14442;50.196;8.096;2022-12-10T09:49:33;22.60;39.00
15983;DHT22;14442;50.196;8.096;2022-12-10T09:52:06;22.70;39.10
15983;DHT22;14442;50.196;8.096;2022-12-10T09:54:35;22.70;39.10
15983;DHT22;14442;50.196;8.096;2022-12-10T09:57:05;22.70;39.10
15983;DHT22;14442;50.196;8.096;2022-12-10T09:59:37;22.70;39.10
15983;DHT22;14442;50.196;8.096;2022-12-10T10:02:22;22.70;39.00
15983;DHT22;14442;50.196;8.096;2022-12-10T10:04:50;22.70;39.10
15983;DHT22;14442;50.196;8.096;2022-12-10T10:07:21;22.70;39.00
15983;DHT22;14442;50.196;8.096;2022-12-10T10:09:49;22.70;39.00
15983;DHT22;14442;50.196;8.096;2022-12-10T10:12:16;22.70;39.10
15983;DHT22;14442;50.196;8.096;2022-12-10T10:14:44;22.70;39.10
15983;DHT22;14442;50.196;8.096;2022-12-10T10:17:16;22.70;39.10
15983;DHT22;14442;50.196;8.096;2022-12-10T10:19:43;22.70;39.20
15983;DHT22;14442;50.196;8.096;2022-12-10T10:22:10;22.70;39.20
15983;DHT22;14442;50.196;8.096;2022-12-10T10:24:40;22.70;39.20
15983;DHT22;14442;50.196;8.096;2022-12-10T10:27:14;22.70;39.10
15983;DHT22;14442;50.196;8.096;2022-12-10T10:29:42;22.70;39.20
15983;DHT22;14442;50.196;8.096;2022-12-10T10:32:15;22.70;39.20
15983;DHT22;14442;50.196;8.096;2022-12-10T10:34:43;22.70;39.20
15983;DHT22;14442;50.196;8.096;2022-12-10T10:37:16;22.60;39.10
15983;DHT22;14442;50.196;8.096;2022-12-10T10:39:49;22.70;39.30
15983;DHT22;14442;50.196;8.096;2022-12-10T10:42:27;22.70;39.20
15983;DHT22;14442;50.196;8.096;2022-12-10T10:44:55;22.70;39.10
15983;DHT22;14442;50.196;8.096;2022-12-10T10:47:27;22.70;39.20
15983;DHT22;14442;50.196;8.096;2022-12-10T10:49:54;22.70;39.20
15983;DHT22;14442;50.196;8.096;2022-12-10T10:52:21;22.70;39.20
15983;DHT22;14442;50.196;8.096;2022-12-10T10:54:49;22.70;39.20
15983;DHT22;14442;50.196;8.096;2022-12-10T10:57:21;22.70;39.20
15983;DHT22;14442;50.196;8.096;2022-12-10T10:59:51;22.70;39.20
15983;DHT22;14442;50.196;8.096;2022-12-10T11:02:22;22.70;39.20
15983;DHT22;14442;50.196;8.096;2022-12-10T11:04:52;22.70;39.20
15983;DHT22;14442;50.196;8.096;2022-12-10T11:07:26;22.70;39.10
15983;DHT22;14442;50.196;8.096;2022-12-10T11:10:00;22.60;39.20
15983;DHT22;14442;50.196;8.096;2022-12-10T11:12:32;22.70;39.20
15983;DHT22;14442;50.196;8.096;2022-12-10T11:14:59;22.70;39.20
15983;DHT22;14442;50.196;8.096;2022-12-10T11:17:27;22.60;39.20
15983;DHT22;14442;50.196;8.096;2022-12-10T11:19:57;22.60;39.10
15983;DHT22;14442;50.196;8.096;2022-12-10T11:22:27;22.60;39.10
15983;DHT22;14442;50.196;8.096;2022-12-10T11:24:54;22.60;39.10
15983;DHT22;14442;50.196;8.096;2022-12-10T11:27:47;22.60;39.10
15983;DHT22;14442;50.196;8.096;2022-12-10T11:30:19;22.60;39.10
15983;DHT22;14442;50.196;8.096;2022-12-10T11:32:59;22.60;39.10
15983;DHT22;14442;50.196;8.096;2022-12-10T11:35:37;22.60;39.20
15983;DHT22;14442;50.196;8.096;2022-12-10T11:38:14;22.60;39.20
15983;DHT22;14442;50.196;8.096;2022-12-10T11:40:45;22.60;39.30
15983;DHT22;14442;50.196;8.096;2022-12-10T11:43:35;22.50;39.20
15983;DHT22;14442;50.196;8.096;2022-12-10T11:46:15;22.50;39.20
15983;DHT22;14442;50.196;8.096;2022-12-10T11:49:00;22.50;39.30
15983;DHT22;14442;50.196;8.096;2022-12-10T11:51:34;22.50;39.20
15983;DHT22;14442;50.196;8.096;2022-12-10T11:54:13;22.50;39.20
15983;DHT22;14442;50.196;8.096;2022-12-10T11:56:47;22.50;39.20
15983;DHT22;14442;50.196;8.096;2022-12-10T11:59:23;22.50;39.30
15983;DHT22;14442;50.196;8.096;2022-12-10T12:02:15;22.50;39.40
15983;DHT22;14442;50.196;8.096;2022-12-10T12:04:56;22.40;39.20
15983;DHT22;14442;50.196;8.096;2022-12-10T12:07:38;22.40;39.10
15983;DHT22;14442;50.196;8.096;2022-12-10T12:10:28;22.40;39.20
15983;DHT22;14442;50.196;8.096;2022-12-10T12:13:01;22.40;39.20
15983;DHT22;14442;50.196;8.096;2022-12-10T12:15:34;22.40;39.30
15983;DHT22;14442;50.196;8.096;2022-12-10T12:18:08;22.40;39.20
15983;DHT22;14442;50.196;8.096;2022-12-10T12:20:40;22.40;39.20
15983;DHT22;14442;50.196;8.096;2022-12-10T12:23:13;22.30;39.30
15983;DHT22;14442;50.196;8.096;2022-12-10T12:25:45;22.30;39.30
15983;DHT22;14442;50.196;8.096;2022-12-10T12:28:15;22.30;39.20
15983;DHT22;14442;50.196;8.096;2022-12-10T12:30:51;22.30;39.30
15983;DHT22;14442;50.196;8.096;2022-12-10T12:33:27;22.30;39.20
15983;DHT22;14442;50.196;8.096;2022-12-10T12:35:58;22.30;39.20
15983;DHT22;14442;50.196;8.096;2022-12-10T12:38:28;22.30;39.20
15983;DHT22;14442;50.196;8.096;2022-12-10T12:41:01;22.30;39.20
15983;DHT22;14442;50.196;8.096;2022-12-10T12:43:38;22.10;39.10
15983;DHT22;14442;50.196;8.096;2022-12-10T12:46:13;22.20;39.30
15983;DHT22;14442;50.196;8.096;2022-12-10T12:48:46;22.20;39.30
15983;DHT22;14442;50.196;8.096;2022-12-10T12:51:19;22.20;39.30
15983;DHT22;14442;50.196;8.096;2022-12-10T12:53:48;22.20;39.30
15983;DHT22;14442;50.196;8.096;2022-12-10T12:56:23;22.20;39.30
15983;DHT22;14442;50.196;8.096;2022-12-10T12:59:02;22.20;39.40
15983;DHT22;14442;50.196;8.096;2022-12-10T13:01:34;22.10;39.60
15983;DHT22;14442;50.196;8.096;2022-12-10T13:04:03;22.10;39.40
15983;DHT22;14442;50.196;8.096;2022-12-10T13:06:32;22.10;39.40
15983;DHT22;14442;50.196;8.096;2022-12-10T13:09:23;22.10;39.40
15983;DHT22;14442;50.196;8.096;2022-12-10T13:12:26;22.00;39.50
15983;DHT22;14442;50.196;8.096;2022-12-10T13:15:16;22.00;39.40
15983;DHT22;14442;50.196;8.096;2022-12-10T13:18:04;22.00;39.40
15983;DHT22;14442;50.196;8.096;2022-12-10T13:20:33;22.00;39.60
15983;DHT22;14442;50.196;8.096;2022-12-10T13:23:02;21.90;39.50
15983;DHT22;14442;50.196;8.096;2022-12-10T13:25:42;21.90;39.50
15983;DHT22;14442;50.196;8.096;2022-12-10T13:28:26;21.90;39.40
15983;DHT22;14442;50.196;8.096;2022-12-10T13:31:18;21.90;39.70
15983;DHT22;14442;50.196;8.096;2022-12-10T13:34:06;21.80;39.60
15983;DHT22;14442;50.196;8.096;2022-12-10T13:36:35;21.80;39.60
15983;DHT22;14442;50.196;8.096;2022-12-10T13:39:21;21.80;39.70
15983;DHT22;14442;50.196;8.096;2022-12-10T13:45:05;21.80;39.60
15983;DHT22;14442;50.196;8.096;2022-12-10T13:47:44;21.70;39.50
15983;DHT22;14442;50.196;8.096;2022-12-10T13:50:18;21.70;39.50
15983;DHT22;14442;50.196;8.096;2022-12-10T13:52:54;21.70;39.50
15983;DHT22;14442;50.196;8.096;2022-12-10T13:55:30;21.70;39.60
15983;DHT22;14442;50.196;8.096;2022-12-10T13:58:24;21.70;39.60
15983;DHT22;14442;50.196;8.096;2022-12-10T14:00:57;21.70;39.60
15983;DHT22;14442;50.196;8.096;2022-12-10T14:03:56;21.70;39.60
15983;DHT22;14442;50.196;8.096;2022-12-10T14:06:32;21.60;39.60
15983;DHT22;14442;50.196;8.096;2022-12-10T14:09:04;21.60;39.80
15983;DHT22;14442;50.196;8.096;2022-12-10T14:11:35;21.60;39.70
15983;DHT22;14442;50.196;8.096;2022-12-10T14:14:05;21.60;39.70
15983;DHT22;14442;50.196;8.096;2022-12-10T14:16:34;21.60;39.80
15983;DHT22;14442;50.196;8.096;2022-12-10T14:19:05;21.60;39.60
15983;DHT22;14442;50.196;8.096;2022-12-10T14:21:35;21.50;39.70
15983;DHT22;14442;50.196;8.096;2022-12-10T14:24:05;21.50;39.80
15983;DHT22;14442;50.196;8.096;2022-12-10T14:26:33;21.50;39.80
15983;DHT22;14442;50.196;8.096;2022-12-10T14:29:17;21.50;39.90
15983;DHT22;14442;50.196;8.096;2022-12-10T14:31:48;21.40;39.80
15983;DHT22;14442;50.196;8.096;2022-12-10T14:34:23;21.40;40.00
15983;DHT22;14442;50.196;8.096;2022-12-10T14:36:54;21.40;39.90
15983;DHT22;14442;50.196;8.096;2022-12-10T14:39:24;21.40;40.00
15983;DHT22;14442;50.196;8.096;2022-12-10T14:41:54;21.40;39.90
15983;DHT22;14442;50.196;8.096;2022-12-10T14:44:22;21.30;39.90
15983;DHT22;14442;50.196;8.096;2022-12-10T14:46:49;21.30;39.90
15983;DHT22;14442;50.196;8.096;2022-12-10T14:49:19;21.30;40.00
15983;DHT22;14442;50.196;8.096;2022-12-10T14:51:46;21.30;40.00
15983;DHT22;14442;50.196;8.096;2022-12-10T14:54:26;21.20;40.00
15983;DHT22;14442;50.196;8.096;2022-12-10T14:56:55;21.30;39.90
15983;DHT22;14442;50.196;8.096;2022-12-10T14:59:25;21.20;39.90
15983;DHT22;14442;50.196;8.096;2022-12-10T15:01:57;21.20;39.70
15983;DHT22;14442;50.196;8.096;2022-12-10T15:04:30;21.20;39.80
15983;DHT22;14442;50.196;8.096;2022-12-10T15:06:58;21.20;39.80
15983;DHT22;14442;50.196;8.096;2022-12-10T15:09:28;21.20;40.40
15983;DHT22;14442;50.196;8.096;2022-12-10T15:11:56;21.20;40.00
15983;DHT22;14442;50.196;8.096;2022-12-10T15:14:23;21.20;39.70
15983;DHT22;14442;50.196;8.096;2022-12-10T15:16:51;21.20;39.70
15983;DHT22;14442;50.196;8.096;2022-12-10T15:19:23;21.10;39.70
15983;DHT22;14442;50.196;8.096;2022-12-10T15:21:51;21.20;39.90
15983;DHT22;14442;50.196;8.096;2022-12-10T15:24:20;21.10;39.80
15983;DHT22;14442;50.196;8.096;2022-12-10T15:26:51;21.10;39.80
15983;DHT22;14442;50.196;8.096;2022-12-10T15:29:33;21.10;39.90
15983;DHT22;14442;50.196;8.096;2022-12-10T15:32:06;21.10;40.10
15983;DHT22;14442;50.196;8.096;2022-12-10T15:34:38;21.10;40.00
15983;DHT22;14442;50.196;8.096;2022-12-10T15:37:06;21.00;39.80
15983;DHT22;14442;50.196;8.096;2022-12-10T15:39:46;21.00;40.00
15983;DHT22;14442;50.196;8.096;2022-12-10T15:42:30;21.00;39.90
15983;DHT22;14442;50.196;8.096;2022-12-10T15:45:02;21.00;39.70
15983;DHT22;14442;50.196;8.096;2022-12-10T15:47:30;21.00;39.70
15983;DHT22;14442;50.196;8.096;2022-12-10T15:49:58;21.00;40.00
15983;DHT22;14442;50.196;8.096;2022-12-10T15:52:26;21.00;40.00
15983;DHT22;14442;50.196;8.096;2022-12-10T15:54:55;20.90;40.00